Time;durP1;ratioP1;P1;durP2;ratioP2;P2;SDS_P1;SDS_P2;PMS_P1;PMS_P2;Temp;Humidity;BMP_temperature;BMP_pressure;BME280_temperature;BME280_humidity;BME280_pressure;Samples;Min_cycle;Max_cycle;Signal;HPM_P1;HPM_P2
2022/08/19 00:01:24;;;;;;;19.55;17.77;;;26.20;85.00;;;;;;4995825;28;20036;-74
2022/08/19 00:03:50;;;;;;;21.35;19.48;;;26.20;85.00;;;;;;4995723;28;20015;-73
2022/08/19 00:06:16;;;;;;;23.25;21.15;;;26.20;85.00;;;;;;4995491;28;20026;-74
2022/08/19 00:08:42;;;;;;;21.83;19.63;;;26.20;85.00;;;;;;4995572;28;20032;-74
2022/08/19 00:11:09;;;;;;;22.35;20.38;;;26.20;85.10;;;;;;4995056;28;20081;-74
2022/08/19 00:13:35;;;;;;;22.00;20.17;;;26.20;85.30;;;;;;4995329;28;20038;-74
2022/08/19 00:16:01;;;;;;;21.95;19.92;;;26.20;85.20;;;;;;4995437;28;20113;-74
2022/08/19 00:18:27;;;;;;;22.38;20.48;;;26.20;85.40;;;;;;4995358;28;20102;-74
2022/08/19 00:20:53;;;;;;;23.05;20.83;;;26.20;86.10;;;;;;4995544;28;20478;-74
2022/08/19 00:23:19;;;;;;;22.90;20.92;;;26.10;85.50;;;;;;4995193;28;20019;-74
2022/08/19 00:25:45;;;;;;;25.77;23.40;;;26.10;85.50;;;;;;4994866;28;20030;-74
2022/08/19 00:28:10;;;;;;;25.25;22.92;;;26.10;85.60;;;;;;4995329;28;20069;-74
2022/08/19 00:30:36;;;;;;;26.85;24.40;;;26.10;85.70;;;;;;4993864;28;20029;-74
2022/08/19 00:33:02;;;;;;;24.35;22.02;;;26.10;85.80;;;;;;4995274;28;20044;-74
2022/08/19 00:35:28;;;;;;;25.25;22.73;;;26.10;85.90;;;;;;4994870;28;20494;-74
2022/08/19 00:37:54;;;;;;;25.38;22.88;;;26.10;86.00;;;;;;4994941;28;20030;-74
2022/08/19 00:40:20;;;;;;;26.20;23.90;;;26.10;86.00;;;;;;4994612;28;20437;-73
2022/08/19 00:42:46;;;;;;;26.02;23.52;;;26.00;86.00;;;;;;4995156;28;20179;-74
2022/08/19 00:45:16;;;;;;;27.90;25.13;;;26.00;86.00;;;;;;4994872;28;20034;-74
2022/08/19 00:47:44;;;;;;;27.80;25.17;;;26.00;86.10;;;;;;4993985;28;20098;-74
2022/08/19 00:50:13;;;;;;;29.10;26.35;;;26.00;86.20;;;;;;4994595;28;20110;-74
2022/08/19 00:52:45;;;;;;;29.50;26.60;;;26.00;86.20;;;;;;4994791;28;20089;-74
2022/08/19 00:55:15;;;;;;;26.08;23.77;;;26.00;86.30;;;;;;4994339;28;20023;-74
2022/08/19 00:57:44;;;;;;;25.27;22.85;;;26.00;86.30;;;;;;4994762;28;20034;-74
2022/08/19 01:00:13;;;;;;;25.77;23.30;;;26.00;86.30;;;;;;4994514;28;20022;-73
2022/08/19 01:02:41;;;;;;;26.15;23.75;;;25.90;86.10;;;;;;4994612;28;20058;-74
2022/08/19 01:05:12;;;;;;;28.60;25.90;;;26.00;86.10;;;;;;4994392;28;20022;-74
2022/08/19 01:07:39;;;;;;;24.88;22.58;;;26.00;86.10;;;;;;4994489;28;20030;-74
2022/08/19 01:10:11;;;;;;;23.77;21.35;;;25.90;86.00;;;;;;4994045;28;20026;-74
2022/08/19 01:12:38;;;;;;;22.50;20.50;;;25.90;86.10;;;;;;4994303;28;20034;-74
2022/08/19 01:15:07;;;;;;;23.83;21.55;;;25.90;85.90;;;;;;4994133;28;20091;-73
2022/08/19 01:17:34;;;;;;;23.75;21.45;;;25.90;85.90;;;;;;4994344;28;20088;-74
2022/08/19 01:20:00;;;;;;;24.08;21.73;;;25.90;85.80;;;;;;4994233;28;20124;-73
2022/08/19 01:22:42;;;;;;;22.85;20.55;;;25.80;85.70;;;;;;4994222;28;20062;-74
2022/08/19 01:25:08;;;;;;;23.02;20.70;;;25.80;85.90;;;;;;4993882;28;20035;-74
2022/08/19 01:27:43;;;;;;;23.55;21.25;;;25.90;85.70;;;;;;4994178;28;20032;-74
2022/08/19 01:30:12;;;;;;;23.27;20.90;;;25.80;85.80;;;;;;4994093;28;20030;-74
2022/08/19 01:32:37;;;;;;;24.02;21.63;;;25.80;85.70;;;;;;4994121;28;20046;-74
2022/08/19 01:35:04;;;;;;;22.30;20.15;;;25.80;85.70;;;;;;4993818;28;20120;-74
2022/08/19 01:37:42;;;;;;;22.70;20.42;;;25.80;85.70;;;;;;4994018;28;20526;-74
2022/08/19 01:40:08;;;;;;;24.15;21.80;;;25.70;85.90;;;;;;4990189;28;20037;-74
2022/08/19 01:42:34;;;;;;;23.50;21.20;;;25.80;85.70;;;;;;5010989;28;20383;-74
2022/08/19 01:45:00;;;;;;;23.60;21.35;;;25.70;85.70;;;;;;5007159;28;20429;-74
2022/08/19 01:47:26;;;;;;;23.48;21.08;;;25.70;85.70;;;;;;4981682;28;20121;-74
2022/08/19 01:49:51;;;;;;;24.30;21.73;;;25.70;85.80;;;;;;4993328;28;20026;-74
2022/08/19 01:52:17;;;;;;;23.65;21.35;;;25.70;85.80;;;;;;4993239;28;20022;-74
2022/08/19 01:54:43;;;;;;;23.83;21.52;;;25.70;85.90;;;;;;4993846;28;20487;-74
2022/08/19 01:57:12;;;;;;;23.08;20.70;;;25.70;85.80;;;;;;4993537;28;20061;-74
2022/08/19 01:59:40;;;;;;;23.92;21.63;;;25.70;85.90;;;;;;4993323;28;20054;-73
2022/08/19 02:02:09;;;;;;;24.30;22.08;;;25.70;85.90;;;;;;4993772;28;20487;-74
2022/08/19 02:04:37;;;;;;;23.88;21.52;;;25.70;85.80;;;;;;4993762;28;20415;-74
2022/08/19 02:07:03;;;;;;;23.70;21.20;;;25.70;85.80;;;;;;4993379;28;20027;-74
2022/08/19 02:09:31;;;;;;;23.88;21.67;;;25.60;85.70;;;;;;4993583;28;20034;-74
2022/08/19 02:11:57;;;;;;;22.52;20.40;;;25.60;85.80;;;;;;4994203;28;20015;-74
2022/08/19 02:14:22;;;;;;;26.02;23.42;;;25.60;85.90;;;;;;4993829;28;20038;-74
2022/08/19 02:16:48;;;;;;;24.05;21.45;;;25.60;85.90;;;;;;4993335;28;20503;-74
2022/08/19 02:19:14;;;;;;;22.98;20.77;;;25.60;85.90;;;;;;4993723;28;20023;-74
2022/08/19 02:21:39;;;;;;;26.20;23.60;;;25.60;86.00;;;;;;4975798;28;20026;-74
2022/08/19 02:24:05;;;;;;;24.60;22.17;;;25.50;85.90;;;;;;4993565;28;20022;-74
2022/08/19 02:26:32;;;;;;;25.25;22.77;;;25.50;85.90;;;;;;4993557;28;20369;-73
2022/08/19 02:28:58;;;;;;;24.00;21.73;;;25.50;86.10;;;;;;4993662;28;20157;-74
2022/08/19 02:31:25;;;;;;;24.05;21.52;;;25.60;86.10;;;;;;4993372;28;20105;-73
2022/08/19 02:33:52;;;;;;;22.48;20.35;;;25.50;86.00;;;;;;4992332;28;20031;-74
2022/08/19 02:36:18;;;;;;;23.02;20.73;;;25.50;86.10;;;;;;4993594;28;20514;-74
2022/08/19 02:38:44;;;;;;;21.50;19.30;;;25.50;86.00;;;;;;4993378;28;20027;-74
2022/08/19 02:41:20;;;;;;;23.85;21.45;;;25.50;86.10;;;;;;4993427;28;20038;-74
2022/08/19 02:43:46;;;;;;;23.80;21.30;;;25.50;86.80;;;;;;4993399;28;20388;-74
2022/08/19 02:46:21;;;;;;;23.00;20.77;;;25.50;86.10;;;;;;4992020;28;20025;-74
2022/08/19 02:48:52;;;;;;;21.58;19.48;;;25.40;86.10;;;;;;4993220;28;20106;-74
2022/08/19 02:51:21;;;;;;;22.52;20.23;;;25.40;86.10;;;;;;4993193;28;20057;-74
2022/08/19 02:53:47;;;;;;;23.17;20.77;;;25.40;86.10;;;;;;4993378;28;20019;-74
2022/08/19 02:56:13;;;;;;;22.90;20.50;;;25.40;86.10;;;;;;4993285;28;20034;-74
2022/08/19 02:58:39;;;;;;;21.00;18.85;;;25.40;86.20;;;;;;4993144;28;20022;-74
2022/08/19 03:01:05;;;;;;;23.55;19.35;;;25.30;86.10;;;;;;4993205;28;20030;-74
2022/08/19 03:03:32;;;;;;;19.88;17.98;;;25.40;86.30;;;;;;4993208;28;20525;-74
2022/08/19 03:06:23;;;;;;;21.23;19.02;;;25.40;86.20;;;;;;4992819;28;20483;-74
2022/08/19 03:08:51;;;;;;;19.73;17.80;;;25.30;86.40;;;;;;4989547;28;20591;-74
2022/08/19 03:11:17;;;;;;;19.05;17.15;;;25.30;86.10;;;;;;4992448;28;20037;-73
2022/08/19 03:13:43;;;;;;;20.73;18.52;;;25.30;86.30;;;;;;4996402;28;20027;-73
2022/08/19 03:16:09;;;;;;;17.25;15.48;;;25.30;86.20;;;;;;4996536;28;20080;-74
2022/08/19 03:18:35;;;;;;;19.02;17.02;;;25.30;86.30;;;;;;4996435;28;20022;-74
2022/08/19 03:21:01;;;;;;;20.15;17.30;;;25.30;86.30;;;;;;4996270;28;20033;-73
2022/08/19 03:23:26;;;;;;;20.27;16.10;;;25.30;86.30;;;;;;4996261;28;20376;-74
2022/08/19 03:25:53;;;;;;;19.48;17.52;;;25.30;86.40;;;;;;4996373;28;20077;-73
2022/08/19 03:28:20;;;;;;;19.13;17.08;;;25.20;86.30;;;;;;4996433;28;20022;-74
2022/08/19 03:31:00;;;;;;;17.27;15.43;;;25.20;86.30;;;;;;4996213;28;20034;-74
2022/08/19 03:33:28;;;;;;;19.92;16.08;;;25.20;86.50;;;;;;4996099;28;20029;-73
2022/08/19 03:36:17;;;;;;;20.75;16.48;;;25.20;86.40;;;;;;4995819;28;20034;-74
2022/08/19 03:38:46;;;;;;;18.15;16.30;;;25.10;86.50;;;;;;4996047;28;20034;-73
2022/08/19 03:41:15;;;;;;;18.77;15.85;;;25.20;86.20;;;;;;4995893;28;20037;-74
2022/08/19 03:43:41;;;;;;;15.55;14.15;;;25.20;86.40;;;;;;4995916;28;20382;-74
2022/08/19 03:46:13;;;;;;;17.05;14.93;;;25.20;86.40;;;;;;4995798;28;20072;-74
2022/08/19 03:48:40;;;;;;;16.10;14.43;;;25.10;86.30;;;;;;4995742;28;20025;-74
2022/08/19 03:51:07;;;;;;;17.38;15.55;;;25.10;86.40;;;;;;4996042;28;20033;-74
2022/08/19 03:53:34;;;;;;;16.42;14.65;;;25.10;86.40;;;;;;4995704;28;20057;-74
2022/08/19 03:56:00;;;;;;;16.70;15.00;;;25.10;86.40;;;;;;4995688;28;20065;-73
2022/08/19 03:58:28;;;;;;;15.13;13.40;;;25.10;86.60;;;;;;4996019;28;20026;-74
2022/08/19 04:00:58;;;;;;;15.75;14.13;;;25.10;86.60;;;;;;4995840;28;20391;-73
2022/08/19 04:03:26;;;;;;;15.25;13.65;;;25.10;86.70;;;;;;4995249;28;20019;-74
2022/08/19 04:05:53;;;;;;;16.58;14.98;;;25.00;86.70;;;;;;4995559;28;20030;-73
2022/08/19 04:08:22;;;;;;;16.23;13.55;;;25.10;86.70;;;;;;4995370;28;20023;-74
2022/08/19 04:10:48;;;;;;;19.48;15.23;;;25.10;86.70;;;;;;4995523;28;20088;-73
2022/08/19 04:13:18;;;;;;;14.48;12.48;;;25.10;86.70;;;;;;4995509;28;20109;-74
2022/08/19 04:15:46;;;;;;;14.05;12.73;;;25.00;86.80;;;;;;4995314;28;20029;-73
2022/08/19 04:18:13;;;;;;;15.82;13.82;;;25.00;86.80;;;;;;4995081;28;20106;-74
2022/08/19 04:20:47;;;;;;;14.30;12.88;;;25.00;86.80;;;;;;4995281;28;20524;-74
2022/08/19 04:23:14;;;;;;;14.68;13.10;;;25.00;87.00;;;;;;4995177;28;20081;-74
2022/08/19 04:25:43;;;;;;;14.27;12.82;;;25.00;86.90;;;;;;4995200;28;20028;-74
2022/08/19 04:28:10;;;;;;;13.88;12.18;;;24.90;86.90;;;;;;4995268;28;20102;-73
2022/08/19 04:30:47;;;;;;;14.07;12.38;;;24.90;87.00;;;;;;4995048;28;20034;-73
2022/08/19 04:33:15;;;;;;;16.73;13.25;;;24.90;87.10;;;;;;4994899;28;20085;-74
2022/08/19 04:35:43;;;;;;;13.70;12.30;;;24.90;87.00;;;;;;4994991;28;20022;-74
2022/08/19 04:38:10;;;;;;;13.15;11.85;;;24.90;87.00;;;;;;4994935;28;20030;-74
2022/08/19 04:43:33;;;;;;;14.80;11.93;;;24.90;87.90;;;;;;4995238;28;20148;-74
2022/08/19 04:46:08;;;;;;;13.88;11.63;;;24.90;87.10;;;;;;4994632;28;20026;-74
2022/08/19 04:48:35;;;;;;;17.25;12.32;;;24.80;87.30;;;;;;4994774;28;20054;-74
2022/08/19 04:51:00;;;;;;;12.18;10.98;;;24.90;87.20;;;;;;4994699;28;20081;-74
2022/08/19 04:53:31;;;;;;;12.38;11.07;;;24.90;87.30;;;;;;4994777;28;20030;-74
2022/08/19 04:55:58;;;;;;;14.27;11.48;;;24.90;87.30;;;;;;4994429;28;20045;-74
2022/08/19 04:58:26;;;;;;;12.80;11.40;;;24.80;87.20;;;;;;4994558;28;20468;-74
2022/08/19 05:00:52;;;;;;;13.90;12.15;;;24.80;87.30;;;;;;4994344;28;20383;-74
2022/08/19 05:03:18;;;;;;;11.98;10.77;;;24.80;87.30;;;;;;4996055;28;20022;-74
2022/08/19 05:05:48;;;;;;;15.80;11.25;;;24.80;87.40;;;;;;5009348;28;20024;-74
2022/08/19 05:08:19;;;;;;;13.02;11.43;;;24.80;87.50;;;;;;5011480;28;20022;-74
2022/08/19 05:10:49;;;;;;;12.53;10.77;;;24.80;87.50;;;;;;5012820;28;20026;-74
2022/08/19 05:13:17;;;;;;;12.85;11.48;;;24.80;87.50;;;;;;5014201;28;20666;-73
2022/08/19 05:15:43;;;;;;;14.95;11.23;;;24.80;87.50;;;;;;5013372;28;20207;-74
2022/08/19 05:23:37;;;;;;;12.05;9.73;;;24.70;87.70;;;;;;5013745;28;20065;-74
2022/08/19 05:26:03;;;;;;;11.73;10.15;;;24.80;87.80;;;;;;5013826;28;20034;-74
2022/08/19 05:28:29;;;;;;;13.05;11.05;;;24.70;87.80;;;;;;5013861;28;20021;-73
2022/08/19 05:30:55;;;;;;;13.25;10.82;;;24.70;87.80;;;;;;5013237;28;20034;-74
2022/08/19 05:33:21;;;;;;;12.32;10.30;;;24.70;88.00;;;;;;5013460;28;20049;-73
2022/08/19 05:35:49;;;;;;;11.75;9.93;;;24.70;88.00;;;;;;5013272;28;20117;-73
2022/08/19 05:38:16;;;;;;;12.85;9.98;;;24.70;88.00;;;;;;5013713;28;20018;-73
2022/08/19 05:40:46;;;;;;;13.13;9.68;;;24.70;88.10;;;;;;5013437;28;20145;-74
2022/08/19 05:43:15;;;;;;;12.38;10.13;;;24.70;88.20;;;;;;5013712;28;20022;-74
2022/08/19 05:45:41;;;;;;;10.20;9.07;;;24.70;88.20;;;;;;5013209;28;20474;-74
2022/08/19 05:48:10;;;;;;;16.17;10.13;;;24.80;88.30;;;;;;5013497;28;20054;-73
2022/08/19 05:50:37;;;;;;;12.50;9.50;;;24.70;88.40;;;;;;5013497;28;20121;-74
2022/08/19 05:53:04;;;;;;;15.13;10.45;;;24.70;88.50;;;;;;4995734;28;20026;-73
2022/08/19 05:55:29;;;;;;;11.18;9.00;;;24.70;88.70;;;;;;5013366;28;20025;-73
2022/08/19 05:57:55;;;;;;;10.75;9.65;;;24.70;88.70;;;;;;5013293;28;20030;-74
2022/08/19 06:00:21;;;;;;;12.27;9.30;;;24.80;88.80;;;;;;5013243;28;20018;-74
2022/08/19 06:02:46;;;;;;;13.90;9.25;;;24.80;88.80;;;;;;5013303;28;20026;-74
2022/08/19 06:05:12;;;;;;;12.82;9.15;;;24.70;88.80;;;;;;5013393;28;20449;-74
2022/08/19 06:07:39;;;;;;;10.90;8.38;;;24.70;88.90;;;;;;5013171;28;20030;-74
2022/08/19 06:10:07;;;;;;;12.85;9.68;;;24.80;89.10;;;;;;5013185;28;20541;-74
2022/08/19 06:12:35;;;;;;;11.77;8.73;;;24.70;89.10;;;;;;5013363;28;20084;-73
2022/08/19 06:15:04;;;;;;;11.60;8.88;;;24.80;89.30;;;;;;5013013;28;20447;-74
2022/08/19 06:17:30;;;;;;;10.50;7.95;;;24.80;89.40;;;;;;5012965;28;20088;-74
2022/08/19 06:19:56;;;;;;;9.77;8.35;;;24.80;89.50;;;;;;5013394;28;20460;-74
2022/08/19 06:22:22;;;;;;;9.98;8.85;;;24.80;89.60;;;;;;5012941;28;20034;-74
2022/08/19 06:24:48;;;;;;;11.27;8.52;;;24.70;89.60;;;;;;5013000;28;20046;-74
2022/08/19 06:27:13;;;;;;;10.57;8.07;;;24.80;89.80;;;;;;5013067;28;20122;-74
2022/08/19 06:29:39;;;;;;;10.32;8.38;;;24.80;89.80;;;;;;5013031;28;20054;-74
2022/08/19 06:32:05;;;;;;;9.30;8.25;;;24.80;89.90;;;;;;5012845;28;20018;-74
2022/08/19 06:34:32;;;;;;;11.63;8.40;;;24.80;90.00;;;;;;5012991;28;20030;-74
2022/08/19 06:37:03;;;;;;;7.45;6.13;;;24.80;90.00;;;;;;5012859;28;20034;-74
2022/08/19 06:39:32;;;;;;;13.68;8.80;;;24.80;90.00;;;;;;4995498;28;20026;-74
2022/08/19 06:42:00;;;;;;;11.75;7.95;;;24.80;90.00;;;;;;5012858;28;20427;-74
2022/08/19 06:44:28;;;;;;;10.85;8.23;;;24.80;90.00;;;;;;5012592;28;20022;-74
2022/08/19 06:46:55;;;;;;;11.40;8.25;;;24.80;90.10;;;;;;5016227;28;20123;-74
2022/08/19 06:49:21;;;;;;;11.25;7.90;;;24.80;90.10;;;;;;5016782;28;20018;-73
2022/08/19 06:51:48;;;;;;;11.68;8.50;;;24.80;90.10;;;;;;5016511;28;20026;-74
2022/08/19 06:54:15;;;;;;;8.90;7.30;;;24.80;90.20;;;;;;5016939;28;20378;-74
2022/08/19 06:56:41;;;;;;;8.35;6.35;;;24.80;90.20;;;;;;5016504;28;20088;-74
2022/08/19 06:59:12;;;;;;;8.57;7.20;;;24.90;90.20;;;;;;5016029;28;20029;-74
2022/08/19 07:01:41;;;;;;;14.47;9.83;;;24.90;90.30;;;;;;5016603;28;20024;-74
2022/08/19 07:04:08;;;;;;;13.77;9.70;;;24.90;90.40;;;;;;5016209;28;20364;-74
2022/08/19 07:06:35;;;;;;;10.73;8.43;;;24.90;90.40;;;;;;5016343;28;20037;-74
2022/08/19 07:09:03;;;;;;;9.48;8.18;;;24.90;90.40;;;;;;5016269;28;20030;-73
2022/08/19 07:11:30;;;;;;;8.55;6.63;;;24.90;90.50;;;;;;5016037;28;20072;-74
2022/08/19 07:13:56;;;;;;;10.18;8.82;;;24.90;90.50;;;;;;5015952;28;20460;-74
2022/08/19 07:16:21;;;;;;;10.20;7.95;;;24.90;90.60;;;;;;5016155;28;20061;-74
2022/08/19 07:18:48;;;;;;;12.32;8.93;;;24.90;90.60;;;;;;5016049;28;20022;-74
2022/08/19 07:21:18;;;;;;;10.52;8.52;;;24.90;90.70;;;;;;5016150;28;20084;-74
2022/08/19 07:23:44;;;;;;;9.43;8.45;;;25.00;90.70;;;;;;5015836;28;20022;-74
2022/08/19 07:26:27;;;;;;;10.57;8.52;;;25.00;90.70;;;;;;5015614;28;20069;-74
2022/08/19 07:28:54;;;;;;;7.28;6.03;;;24.90;90.80;;;;;;5015987;28;20022;-74
2022/08/19 07:31:22;;;;;;;9.93;8.82;;;25.00;90.70;;;;;;5015902;28;20034;-74
2022/08/19 07:33:51;;;;;;;9.40;8.23;;;25.00;90.80;;;;;;4998053;28;20471;-74
2022/08/19 07:36:19;;;;;;;10.55;8.45;;;25.00;90.80;;;;;;5015633;28;20072;-74
2022/08/19 07:38:47;;;;;;;10.15;8.27;;;25.00;90.70;;;;;;5015598;28;20053;-74
2022/08/19 07:41:19;;;;;;;9.13;7.88;;;25.00;90.80;;;;;;5015430;28;20038;-74
2022/08/19 07:43:45;;;;;;;9.60;8.60;;;25.00;90.90;;;;;;5015610;28;20030;-74
2022/08/19 07:46:13;;;;;;;9.48;8.32;;;25.10;90.90;;;;;;5015467;28;20096;-74
2022/08/19 07:48:41;;;;;;;9.73;8.48;;;25.10;91.00;;;;;;5015557;28;20372;-74
2022/08/19 07:51:10;;;;;;;11.07;8.27;;;25.00;90.90;;;;;;5015520;28;20477;-74
2022/08/19 07:53:37;;;;;;;8.40;6.72;;;25.00;90.90;;;;;;5015675;28;20022;-74
2022/08/19 07:56:04;;;;;;;8.73;7.13;;;25.10;90.90;;;;;;5015133;28;20030;-74
2022/08/19 07:58:37;;;;;;;7.88;6.68;;;25.10;91.00;;;;;;5014797;28;20570;-74
2022/08/19 08:01:05;;;;;;;11.90;7.68;;;25.10;90.80;;;;;;5015378;28;20022;-74
2022/08/19 08:11:49;;;;;;;9.20;8.30;;;25.10;90.90;;;;;;5015388;28;20092;-74
2022/08/19 08:14:18;;;;;;;8.90;8.00;;;25.10;91.00;;;;;;5014950;28;20056;-74
2022/08/19 08:16:45;;;;;;;9.82;8.27;;;25.10;91.10;;;;;;5014896;28;20033;-74
2022/08/19 08:19:14;;;;;;;10.27;6.88;;;25.10;91.20;;;;;;5014888;28;20137;-74
2022/08/19 08:21:40;;;;;;;9.50;7.32;;;25.10;91.00;;;;;;5015055;28;20034;-75
2022/08/19 08:24:06;;;;;;;10.45;7.03;;;25.20;91.10;;;;;;5014510;28;20491;-74
2022/08/19 08:26:31;;;;;;;6.78;6.18;;;25.20;91.10;;;;;;5014715;28;20030;-74
2022/08/19 08:28:57;;;;;;;6.63;5.60;;;25.20;91.00;;;;;;5014902;28;20046;-74
2022/08/19 08:31:23;;;;;;;9.82;7.47;;;25.20;91.00;;;;;;5014775;28;20403;-74
2022/08/19 08:33:49;;;;;;;10.77;7.50;;;25.20;91.10;;;;;;5014870;28;20026;-74
2022/08/19 08:36:15;;;;;;;10.57;8.25;;;25.20;91.00;;;;;;5014447;28;20022;-74
2022/08/19 08:38:45;;;;;;;8.93;7.47;;;25.20;91.20;;;;;;5014434;28;20445;-74
2022/08/19 08:41:28;;;;;;;10.30;7.88;;;25.20;91.20;;;;;;5014234;28;20034;-74
2022/08/19 08:43:56;;;;;;;9.43;7.30;;;25.20;91.30;;;;;;5014482;28;20041;-74
2022/08/19 08:46:26;;;;;;;8.38;6.95;;;25.20;91.30;;;;;;5014488;28;20022;-74
2022/08/19 08:49:07;;;;;;;9.68;7.38;;;25.20;91.20;;;;;;5014624;28;20410;-74
2022/08/19 08:51:41;;;;;;;10.40;8.38;;;25.20;91.30;;;;;;5014163;28;20018;-74
2022/08/19 08:54:12;;;;;;;11.27;8.65;;;25.20;91.40;;;;;;5013916;28;20487;-74
2022/08/19 08:56:43;;;;;;;10.00;6.80;;;25.30;91.40;;;;;;5014177;28;20044;-74
2022/08/19 08:59:23;;;;;;;11.35;8.30;;;25.30;91.10;;;;;;5014311;28;20057;-74
2022/08/19 09:01:49;;;;;;;11.45;9.00;;;25.20;91.20;;;;;;5014186;28;20509;-74
2022/08/19 09:04:15;;;;;;;12.23;9.27;;;25.30;91.30;;;;;;5013951;28;20018;-74
2022/08/19 09:07:11;;;;;;;11.18;7.50;;;25.30;91.50;;;;;;5014781;28;20052;-74
2022/08/19 09:09:41;;;;;;;9.63;7.88;;;25.30;91.40;;;;;;5012940;28;20054;-74
2022/08/19 09:12:07;;;;;;;10.82;8.63;;;25.30;91.30;;;;;;5013917;28;20095;-74
2022/08/19 09:14:45;;;;;;;11.00;7.88;;;25.30;91.40;;;;;;5014096;28;20034;-74
2022/08/19 09:17:12;;;;;;;11.73;8.35;;;25.30;91.40;;;;;;5013858;28;20504;-74
2022/08/19 09:20:13;;;;;;;9.63;7.93;;;25.30;91.30;;;;;;5013850;28;20467;-73
2022/08/19 09:22:43;;;;;;;9.30;7.05;;;25.30;91.50;;;;;;4934167;29;20035;-74
2022/08/19 09:25:11;;;;;;;11.60;8.38;;;25.40;91.50;;;;;;5000065;28;20482;-74
2022/08/19 09:27:39;;;;;;;9.90;7.75;;;25.30;91.60;;;;;;5013843;28;20018;-73
2022/08/19 09:30:07;;;;;;;9.13;7.10;;;25.40;91.70;;;;;;5013557;28;20030;-74
2022/08/19 09:32:33;;;;;;;9.90;7.57;;;25.40;91.50;;;;;;5013779;28;20030;-74
2022/08/19 09:35:00;;;;;;;9.75;8.07;;;25.40;91.70;;;;;;5013706;28;20022;-74
2022/08/19 09:37:26;;;;;;;10.07;7.53;;;25.40;91.70;;;;;;5013240;28;20042;-74
2022/08/19 09:39:52;;;;;;;8.77;6.45;;;25.40;91.40;;;;;;5013859;28;20025;-73
2022/08/19 09:42:18;;;;;;;12.27;7.22;;;25.40;91.50;;;;;;5013358;28;20034;-74
2022/08/19 09:44:44;;;;;;;7.88;6.20;;;25.40;91.60;;;;;;5013576;28;20033;-74
2022/08/19 09:47:12;;;;;;;6.40;5.25;;;25.40;91.50;;;;;;5013297;28;20022;-74
2022/08/19 09:49:39;;;;;;;11.13;8.50;;;25.40;91.30;;;;;;5013503;28;20034;-74
2022/08/19 09:52:07;;;;;;;8.98;7.00;;;25.40;91.60;;;;;;5012775;28;20032;-74
2022/08/19 09:54:33;;;;;;;10.77;8.18;;;25.40;91.70;;;;;;5013748;28;20030;-74
2022/08/19 09:57:02;;;;;;;9.65;7.70;;;25.40;91.70;;;;;;5013103;28;20105;-74
2022/08/19 09:59:29;;;;;;;10.50;7.53;;;25.40;91.80;;;;;;5013388;28;20394;-74
2022/08/19 10:01:55;;;;;;;11.20;7.97;;;25.40;91.70;;;;;;5013248;28;20088;-74
2022/08/19 10:04:21;;;;;;;11.77;8.98;;;25.50;91.80;;;;;;5013384;28;20383;-74
2022/08/19 10:06:48;;;;;;;8.77;7.53;;;25.50;91.70;;;;;;5012749;28;20033;-73
2022/08/19 10:09:16;;;;;;;7.55;4.97;;;25.50;91.70;;;;;;5013337;28;20026;-74
2022/08/19 10:11:43;;;;;;;10.48;7.68;;;25.50;91.50;;;;;;5013290;28;20022;-74
2022/08/19 10:14:09;;;;;;;10.38;8.30;;;25.50;91.50;;;;;;5013264;28;20033;-74
2022/08/19 10:16:37;;;;;;;8.40;7.40;;;25.50;91.70;;;;;;5013025;28;20029;-74
2022/08/19 10:19:03;;;;;;;9.77;8.77;;;25.50;91.70;;;;;;5013199;28;20032;-75
2022/08/19 10:21:32;;;;;;;8.60;7.13;;;25.50;91.70;;;;;;5015853;28;20395;-74
2022/08/19 10:23:59;;;;;;;7.20;6.03;;;25.50;91.60;;;;;;5017247;28;20018;-74
2022/08/19 10:26:30;;;;;;;9.95;8.05;;;25.50;91.50;;;;;;5016880;28;20033;-74
2022/08/19 10:28:57;;;;;;;9.73;7.88;;;25.50;91.40;;;;;;5017313;28;20026;-74
2022/08/19 10:31:29;;;;;;;7.85;6.25;;;25.50;91.60;;;;;;5016995;28;20029;-74
2022/08/19 10:33:57;;;;;;;6.95;6.30;;;25.50;91.80;;;;;;5017024;28;20025;-74
2022/08/19 10:36:30;;;;;;;6.97;5.95;;;25.50;91.90;;;;;;5016240;28;20447;-74
2022/08/19 10:38:58;;;;;;;;;;;25.40;92.40;;;;;;5017356;28;20014;-73
2022/08/19 10:41:29;;;;;;;5.82;4.90;;;25.40;92.00;;;;;;5016679;28;19917;-74
2022/08/19 10:43:57;;;;;;;5.50;5.00;;;25.50;92.40;;;;;;5016736;28;20411;-74
2022/08/19 10:46:25;;;;;;;6.13;3.70;;;25.50;92.10;;;;;;5016375;28;20114;-74
2022/08/19 10:48:51;;;;;;;4.43;3.70;;;25.40;92.00;;;;;;5016370;28;20018;-74
2022/08/19 10:54:02;;;;;;;6.65;5.35;;;25.40;92.10;;;;;;5016837;28;20040;-74
2022/08/19 10:59:15;;;;;;;5.25;4.45;;;25.40;92.30;;;;;;5016701;28;20040;-74
2022/08/19 11:01:43;;;;;;;5.68;4.35;;;25.50;92.40;;;;;;5016695;28;20037;-74
2022/08/19 11:04:10;;;;;;;4.57;4.10;;;25.50;92.30;;;;;;5015908;28;20121;-74
2022/08/19 11:06:38;;;;;;;4.40;3.88;;;25.50;91.90;;;;;;5016276;28;20342;-74
2022/08/19 11:09:05;;;;;;;5.15;4.60;;;25.50;92.10;;;;;;5016381;28;20101;-74
2022/08/19 11:11:32;;;;;;;4.10;3.70;;;25.50;92.00;;;;;;5016618;28;20113;-74
2022/08/19 11:13:58;;;;;;;4.30;3.35;;;25.60;91.50;;;;;;5016163;28;20030;-74
2022/08/19 11:16:26;;;;;;;4.10;3.38;;;25.60;91.30;;;;;;5016220;28;20038;-74
2022/08/19 11:19:01;;;;;;;3.95;3.45;;;25.60;91.60;;;;;;5015861;28;20426;-74
2022/08/19 11:21:32;;;;;;;4.25;3.80;;;25.60;91.40;;;;;;5016110;28;20026;-74
2022/08/19 11:24:03;;;;;;;3.88;3.47;;;25.70;92.10;;;;;;5015993;28;20102;-74
2022/08/19 11:26:30;;;;;;;4.60;3.47;;;25.70;91.10;;;;;;5016115;28;20100;-74
2022/08/19 11:28:57;;;;;;;5.03;3.42;;;25.70;91.10;;;;;;5015964;28;20383;-74
2022/08/19 11:31:31;;;;;;;3.88;3.03;;;25.70;91.00;;;;;;5015499;28;20463;-74
2022/08/19 11:33:59;;;;;;;2.95;2.67;;;25.70;90.90;;;;;;5015291;28;20529;-74
2022/08/19 11:36:25;;;;;;;3.60;3.30;;;25.80;90.80;;;;;;5015527;28;20506;-74
2022/08/19 11:38:51;;;;;;;3.40;3.10;;;25.80;90.70;;;;;;5015832;28;20033;-74
2022/08/19 11:41:20;;;;;;;3.17;2.80;;;25.80;91.00;;;;;;5015554;28;20025;-74
2022/08/19 11:43:46;;;;;;;4.22;3.30;;;25.80;91.00;;;;;;5015847;28;20030;-74
2022/08/19 11:46:13;;;;;;;3.95;3.22;;;25.90;90.90;;;;;;5015543;28;20029;-74
2022/08/19 11:48:40;;;;;;;3.47;3.13;;;25.90;91.00;;;;;;5015251;28;20026;-74
2022/08/19 11:51:09;;;;;;;3.28;2.90;;;25.90;90.70;;;;;;5015690;28;20054;-74
2022/08/19 11:53:35;;;;;;;4.35;2.53;;;25.90;91.00;;;;;;5015436;28;20022;-74
2022/08/19 11:56:02;;;;;;;3.20;2.90;;;26.00;90.90;;;;;;5015585;28;20028;-74
2022/08/19 11:58:29;;;;;;;3.70;3.25;;;26.00;90.60;;;;;;5015297;28;20395;-74
2022/08/19 12:00:54;;;;;;;3.38;3.00;;;26.00;90.50;;;;;;5015332;28;20529;-74
2022/08/19 12:03:20;;;;;;;3.17;2.75;;;26.00;90.80;;;;;;5014802;28;20026;-74
2022/08/19 12:05:46;;;;;;;3.08;2.70;;;26.00;90.40;;;;;;5015292;28;20025;-74
2022/08/19 12:08:12;;;;;;;3.33;2.50;;;26.00;90.60;;;;;;5015266;28;20025;-74
2022/08/19 12:10:41;;;;;;;2.90;2.45;;;26.00;90.10;;;;;;5015039;28;20092;-74
2022/08/19 12:13:07;;;;;;;3.25;2.53;;;26.00;90.30;;;;;;5015210;28;20026;-74
2022/08/19 12:15:40;;;;;;;2.88;2.63;;;26.10;90.30;;;;;;5014863;28;20014;-74
2022/08/19 12:18:06;;;;;;;2.97;2.00;;;26.00;90.30;;;;;;5014592;28;20514;-74
2022/08/19 12:20:35;;;;;;;3.83;2.83;;;26.10;90.10;;;;;;5014831;28;20029;-74
2022/08/19 12:23:01;;;;;;;3.20;2.80;;;26.10;90.20;;;;;;5015029;28;20153;-74
2022/08/19 12:25:27;;;;;;;3.90;2.13;;;26.10;90.40;;;;;;5014741;28;20489;-74
2022/08/19 12:27:52;;;;;;;2.40;2.03;;;26.10;90.30;;;;;;5014803;28;20034;-74
2022/08/19 12:30:18;;;;;;;2.70;2.33;;;26.10;90.50;;;;;;5014437;28;20490;-74
2022/08/19 12:32:44;;;;;;;2.20;1.98;;;26.10;90.40;;;;;;5014804;28;20034;-74
2022/08/19 12:35:10;;;;;;;2.53;2.10;;;26.20;90.10;;;;;;5014721;28;20049;-74
2022/08/19 12:37:36;;;;;;;2.58;2.15;;;26.20;90.10;;;;;;5014704;28;20116;-74
2022/08/19 12:40:02;;;;;;;2.45;2.15;;;26.20;89.60;;;;;;5014523;28;20439;-73
2022/08/19 12:42:29;;;;;;;2.67;1.80;;;26.20;90.30;;;;;;5014470;28;20049;-74
2022/08/19 12:44:55;;;;;;;2.55;2.10;;;26.20;90.10;;;;;;5013969;28;20018;-74
2022/08/19 12:47:20;;;;;;;2.40;2.05;;;26.20;89.90;;;;;;5014452;28;20041;-74
2022/08/19 12:49:47;;;;;;;2.92;1.58;;;26.30;90.10;;;;;;5014266;28;20010;-74
2022/08/19 12:52:16;;;;;;;2.78;1.88;;;26.30;90.00;;;;;;5014636;28;20029;-74
2022/08/19 12:54:43;;;;;;;1.73;1.60;;;26.30;90.00;;;;;;5014631;28;20049;-74
2022/08/19 12:57:10;;;;;;;3.08;2.00;;;26.30;89.70;;;;;;5014309;28;20511;-74
2022/08/19 12:59:37;;;;;;;3.50;1.83;;;26.30;89.50;;;;;;5014029;28;20382;-74
2022/08/19 13:02:07;;;;;;;2.10;1.90;;;26.30;90.00;;;;;;5014330;28;20382;-74